createdAt,value
2022-10-18T00:03:52.442Z,27.40
2022-10-18T00:08:58.334Z,28.20
2022-10-18T00:14:04.409Z,29.20
2022-10-18T00:19:10.306Z,28.50
2022-10-18T00:24:19.842Z,29.80
2022-10-18T00:29:25.734Z,30.10
2022-10-18T00:34:31.690Z,28.70
2022-10-18T00:39:37.542Z,24.30
2022-10-18T00:45:18.823Z,31.60
2022-10-18T00:50:26.651Z,27.70
2022-10-18T00:55:34.156Z,27.70
2022-10-18T01:00:40.819Z,30.50
2022-10-18T01:05:48.606Z,32.20
2022-10-18T01:11:06.649Z,30.50
2022-10-18T01:16:19.790Z,29.10
2022-10-18T01:21:41.603Z,25.50
2022-10-18T01:27:05.782Z,27.40
2022-10-18T01:32:15.643Z,29.50
2022-10-18T01:37:23.968Z,29.30
2022-10-18T01:42:30.840Z,25.40
2022-10-18T01:47:37.387Z,27.00
2022-10-18T01:52:51.188Z,26.80
2022-10-18T01:58:04.655Z,26.40
2022-10-18T02:03:19.070Z,24.10
2022-10-18T02:08:28.899Z,23.30
2022-10-18T02:13:43.502Z,25.70
2022-10-18T02:18:55.383Z,26.50
2022-10-18T02:24:03.788Z,29.80
2022-10-18T02:29:10.422Z,29.30
2022-10-18T02:34:20.596Z,26.40
2022-10-18T02:39:30.568Z,28.10
2022-10-18T02:44:38.446Z,27.90
2022-10-18T02:49:44.451Z,29.50
2022-10-18T02:54:50.334Z,26.30
2022-10-18T02:59:56.178Z,19.00
2022-10-18T03:05:02.027Z,11.80
2022-10-18T03:10:09.398Z,14.10
2022-10-18T03:15:15.183Z,16.50
2022-10-18T03:20:21.115Z,12.20
2022-10-18T03:25:26.893Z,13.40
2022-10-18T03:30:33.047Z,15.60
2022-10-18T03:35:39.075Z,14.70
2022-10-18T03:40:45.069Z,10.00
2022-10-18T03:45:51.270Z,12.50
2022-10-18T03:50:57.128Z,11.30
2022-10-18T03:56:03.017Z,13.50
2022-10-18T04:01:08.863Z,14.40
2022-10-18T04:06:14.651Z,15.40
2022-10-18T04:11:20.442Z,12.20
2022-10-18T04:16:26.449Z,11.40
2022-10-18T04:21:32.357Z,13.70
2022-10-18T04:26:38.303Z,11.40
2022-10-18T04:31:44.433Z,9.50
2022-10-18T04:36:50.183Z,10.20
2022-10-18T04:41:56.080Z,12.40
2022-10-18T04:47:01.775Z,10.10
2022-10-18T04:52:07.774Z,12.20
2022-10-18T04:57:13.680Z,11.10
2022-10-18T05:02:19.443Z,11.50
2022-10-18T05:07:25.361Z,14.40
2022-10-18T05:12:31.681Z,9.70
2022-10-18T05:17:37.938Z,10.50
2022-10-18T05:22:44.069Z,10.80
2022-10-18T05:27:49.950Z,9.70
2022-10-18T05:32:55.711Z,11.90
2022-10-18T05:38:04.223Z,14.50
2022-10-18T05:43:10.498Z,12.70
2022-10-18T05:48:16.554Z,12.50
2022-10-18T05:53:36.259Z,11.70
2022-10-18T05:58:43.797Z,13.00
2022-10-18T06:03:50.628Z,12.30
2022-10-18T06:08:56.586Z,12.00
2022-10-18T06:14:02.947Z,11.00
2022-10-18T06:19:08.878Z,9.90
2022-10-18T06:24:14.824Z,11.00
2022-10-18T06:29:20.775Z,8.70
2022-10-18T06:34:26.664Z,9.70
2022-10-18T06:39:32.847Z,10.20
2022-10-18T06:44:38.667Z,12.00
2022-10-18T06:49:44.612Z,15.80
2022-10-18T06:54:50.699Z,15.80
2022-10-18T06:59:56.711Z,11.00
2022-10-18T07:05:02.748Z,12.70
2022-10-18T07:10:12.922Z,11.90
2022-10-18T07:15:22.550Z,12.50
2022-10-18T07:20:28.505Z,11.70
2022-10-18T07:25:34.185Z,8.30
2022-10-18T07:30:40.023Z,13.20
2022-10-18T07:35:46.303Z,9.90
2022-10-18T07:40:58.663Z,10.70
2022-10-18T07:46:06.027Z,14.20
2022-10-18T07:51:12.225Z,13.00
2022-10-18T07:56:21.326Z,29.30
2022-10-18T08:01:27.902Z,13.70
2022-10-18T08:06:33.814Z,11.80
2022-10-18T08:11:40.271Z,12.50
2022-10-18T08:16:46.083Z,16.70
2022-10-18T08:21:51.843Z,13.60
2022-10-18T08:26:57.514Z,15.50
2022-10-18T08:32:03.447Z,13.90
2022-10-18T08:37:09.358Z,11.70
2022-10-18T08:42:50.118Z,13.80
2022-10-18T08:47:57.875Z,9.60
2022-10-18T08:53:14.197Z,14.10
2022-10-18T08:58:22.497Z,10.90
2022-10-18T09:03:44.356Z,17.10
2022-10-18T09:09:06.776Z,15.00
2022-10-18T09:14:31.031Z,24.40
2022-10-18T09:25:17.397Z,20.10
2022-10-18T09:30:35.730Z,18.10
2022-10-18T09:35:48.947Z,25.70
2022-10-18T09:40:58.969Z,24.40
2022-10-18T09:46:07.083Z,13.50
2022-10-18T09:51:21.534Z,16.30
2022-10-18T09:56:30.595Z,16.90
2022-10-18T10:01:36.404Z,13.00
2022-10-18T10:06:51.620Z,13.10
2022-10-18T10:11:58.349Z,13.90
2022-10-18T10:17:06.977Z,14.20
2022-10-18T10:22:14.640Z,17.20
2022-10-18T10:27:24.895Z,17.00
2022-10-18T10:32:47.755Z,20.70
2022-10-18T10:37:56.371Z,21.40
2022-10-18T10:43:25.061Z,18.90
2022-10-18T10:48:34.600Z,20.80
2022-10-18T10:53:50.649Z,17.30
2022-10-18T10:58:58.832Z,17.30
2022-10-18T11:04:25.591Z,17.70
2022-10-18T11:09:49.268Z,19.00
2022-10-18T11:15:02.857Z,16.40
2022-10-18T11:20:28.274Z,19.80
2022-10-18T11:25:48.405Z,33.30
2022-10-18T11:31:07.622Z,52.20
2022-10-18T11:36:18.496Z,26.20
2022-10-18T11:41:36.122Z,26.40
2022-10-18T11:46:54.604Z,67.70
2022-10-18T11:52:10.649Z,39.20
2022-10-18T11:57:36.190Z,25.40
2022-10-18T12:03:01.161Z,19.10
2022-10-18T12:08:11.699Z,23.80
2022-10-18T12:13:23.302Z,25.50
2022-10-18T12:18:30.646Z,24.10
2022-10-18T12:23:43.016Z,21.80
2022-10-18T12:28:57.395Z,21.00
2022-10-18T12:34:10.869Z,19.10
2022-10-18T12:39:32.277Z,27.50
2022-10-18T12:44:49.187Z,40.70
2022-10-18T12:50:04.060Z,55.30
2022-10-18T12:55:36.911Z,41.30
2022-10-18T13:01:03.461Z,26.30
2022-10-18T13:06:09.313Z,26.90
2022-10-18T13:11:36.302Z,27.70
2022-10-18T13:16:47.267Z,31.60
2022-10-18T13:22:04.147Z,39.00
2022-10-18T13:27:42.371Z,32.20
2022-10-18T13:32:57.406Z,22.40
2022-10-18T13:38:05.159Z,17.10
2022-10-18T13:43:41.406Z,19.00
2022-10-18T13:48:52.240Z,20.10
2022-10-18T13:54:04.400Z,19.30
2022-10-18T13:59:28.747Z,25.00
2022-10-18T14:04:52.172Z,25.30
2022-10-18T14:10:03.392Z,22.00
2022-10-18T14:15:17.168Z,21.70
2022-10-18T14:20:29.908Z,17.90
2022-10-18T14:25:37.628Z,23.50
2022-10-18T14:30:55.738Z,27.70
2022-10-18T14:36:06.209Z,28.90
2022-10-18T14:41:20.598Z,22.60
2022-10-18T14:46:29.179Z,25.80
2022-10-18T14:51:39.381Z,27.70
2022-10-18T14:56:46.214Z,19.10
2022-10-18T15:01:58.632Z,14.70
2022-10-18T15:07:06.189Z,11.50
2022-10-18T15:12:16.097Z,5.60
2022-10-18T15:17:25.348Z,7.20
2022-10-18T15:22:33.069Z,7.90
2022-10-18T15:32:52.481Z,13.30
2022-10-18T15:38:03.432Z,6.60
2022-10-18T15:48:37.061Z,8.00
2022-10-18T15:53:53.444Z,10.00
2022-10-18T15:59:00.993Z,13.80
2022-10-18T16:04:16.197Z,14.00
2022-10-18T16:09:23.108Z,15.40
2022-10-18T16:14:30.158Z,13.40
2022-10-18T16:19:35.929Z,18.10
2022-10-18T16:24:41.669Z,15.80
2022-10-18T16:29:47.723Z,17.50
2022-10-18T16:34:53.348Z,15.60
2022-10-18T16:40:00.668Z,15.70
2022-10-18T16:45:07.872Z,16.00
2022-10-18T16:50:16.774Z,17.60
2022-10-18T16:55:24.945Z,18.90
2022-10-18T17:00:31.325Z,16.10
2022-10-18T17:05:37.062Z,22.00
2022-10-18T17:10:42.841Z,16.40
2022-10-18T17:15:50.222Z,16.20
2022-10-18T17:20:56.579Z,16.40
2022-10-18T17:26:26.642Z,15.50
2022-10-18T17:31:29.461Z,10.30
2022-10-18T17:36:35.338Z,6.50
2022-10-18T17:41:41.001Z,8.80
2022-10-18T17:46:46.862Z,7.20
2022-10-18T17:51:52.590Z,8.00
2022-10-18T17:56:58.216Z,7.30
2022-10-18T18:02:04.016Z,9.50
2022-10-18T18:07:09.779Z,6.00
2022-10-18T18:12:15.449Z,6.30
2022-10-18T18:17:28.715Z,6.50
2022-10-18T18:22:42.756Z,4.70
2022-10-18T18:27:49.015Z,5.00
2022-10-18T18:32:54.924Z,7.70
2022-10-18T18:38:00.956Z,9.10
2022-10-18T18:43:22.808Z,7.10
2022-10-18T18:48:31.487Z,5.40
2022-10-18T18:53:39.177Z,7.30
2022-10-18T18:58:45.855Z,7.80
2022-10-18T19:03:53.406Z,10.70
2022-10-18T19:09:03.055Z,10.30
2022-10-18T19:14:09.528Z,7.50
2022-10-18T19:19:17.133Z,7.50
2022-10-18T19:24:24.326Z,6.70
2022-10-18T19:29:31.488Z,6.90
2022-10-18T19:34:37.289Z,5.00
2022-10-18T19:39:43.232Z,6.30
2022-10-18T19:44:49.175Z,11.40
2022-10-18T19:49:55.514Z,8.10
2022-10-18T19:55:01.284Z,6.10
2022-10-18T20:00:11.319Z,7.30
2022-10-18T20:05:17.862Z,7.10
2022-10-18T20:10:23.693Z,8.60
2022-10-18T20:15:29.469Z,9.10
2022-10-18T20:20:37.474Z,7.30
2022-10-18T20:25:43.521Z,7.60
2022-10-18T20:30:49.349Z,6.30
2022-10-18T20:35:55.111Z,7.70
2022-10-18T20:41:06.450Z,7.80
2022-10-18T20:51:17.562Z,6.30
2022-10-18T20:56:26.511Z,6.20
2022-10-18T21:01:34.076Z,7.00
2022-10-18T21:06:41.685Z,5.50
2022-10-18T21:11:49.734Z,6.60
2022-10-18T21:16:55.644Z,6.00
2022-10-18T21:22:01.640Z,7.50
2022-10-18T21:27:07.459Z,6.90
2022-10-18T21:32:13.155Z,7.90
2022-10-18T21:37:18.964Z,7.40
2022-10-18T21:42:24.834Z,7.60
2022-10-18T21:47:30.607Z,10.40
2022-10-18T21:52:36.419Z,13.10
2022-10-18T21:57:42.288Z,9.20
2022-10-18T22:02:48.172Z,12.20
2022-10-18T22:07:53.921Z,13.20
2022-10-18T22:13:00.255Z,14.90
2022-10-18T22:18:06.202Z,11.60
2022-10-18T22:23:12.942Z,10.60
2022-10-18T22:28:18.730Z,10.40
2022-10-18T22:33:24.640Z,14.10
2022-10-18T22:38:35.051Z,13.40
2022-10-18T22:43:41.045Z,11.60
2022-10-18T22:48:47.304Z,16.20
2022-10-18T22:53:53.321Z,12.70
2022-10-18T22:59:14.057Z,14.90
2022-10-18T23:04:19.853Z,18.70
2022-10-18T23:09:25.791Z,13.80
2022-10-18T23:14:31.662Z,13.90
2022-10-18T23:19:37.439Z,14.60
2022-10-18T23:24:44.602Z,14.70
2022-10-18T23:29:50.371Z,17.30
2022-10-18T23:34:56.047Z,16.50
2022-10-18T23:40:01.982Z,16.10
2022-10-18T23:45:10.000Z,15.20
2022-10-18T23:50:16.079Z,16.20
2022-10-18T23:55:21.901Z,15.00
